Time;durP1;ratioP1;P1;durP2;ratioP2;P2;SDS_P1;SDS_P2;PMS_P1;PMS_P2;Temp;Humidity;BMP_temperature;BMP_pressure;BME280_temperature;BME280_humidity;BME280_pressure;Samples;Min_cycle;Max_cycle;Signal;HPM_P1;HPM_P2
2022/01/30 00:01:10;;;;;;;32.40;2.30;;;6.70;49.10;;;;;;5026237;28;20479;-69
2022/01/30 00:03:37;;;;;;;32.47;2.60;;;6.70;49.00;;;;;;5027644;28;20470;-69
2022/01/30 00:06:04;;;;;;;33.67;2.70;;;6.70;48.90;;;;;;5027028;28;20456;-66
2022/01/30 00:08:30;;;;;;;32.37;2.70;;;6.90;48.90;;;;;;5027802;28;20466;-67
2022/01/30 00:11:06;;;;;;;32.47;3.13;;;6.80;48.60;;;;;;5025413;28;20642;-66
2022/01/30 00:13:34;;;;;;;32.97;2.53;;;6.80;48.50;;;;;;5027132;28;20516;-66
2022/01/30 00:16:04;;;;;;;32.40;2.90;;;6.80;48.40;;;;;;5025771;28;21018;-67
2022/01/30 00:18:45;;;;;;;33.53;2.90;;;6.80;48.20;;;;;;5029989;28;20455;-67
2022/01/30 00:21:17;;;;;;;32.40;2.60;;;6.80;48.20;;;;;;5031173;28;20463;-67
2022/01/30 00:23:48;;;;;;;32.47;2.37;;;6.80;48.00;;;;;;5031991;28;20494;-67
2022/01/30 00:26:18;;;;;;;31.80;2.20;;;6.80;47.90;;;;;;5031880;28;20454;-67
2022/01/30 00:28:45;;;;;;;31.97;2.20;;;6.80;48.00;;;;;;5030927;28;20478;-67
2022/01/30 00:31:13;;;;;;;32.70;2.40;;;6.80;47.80;;;;;;5041234;28;20825;-67
2022/01/30 00:33:40;;;;;;;33.30;4.00;;;6.80;47.70;;;;;;5051135;28;20457;-66
2022/01/30 00:36:07;;;;;;;32.33;2.53;;;6.80;47.60;;;;;;5051056;28;20922;-65
2022/01/30 00:38:35;;;;;;;32.33;2.63;;;6.80;47.60;;;;;;5050829;28;20587;-66
2022/01/30 00:41:02;;;;;;;32.10;2.37;;;6.80;47.50;;;;;;5049915;28;20473;-66
2022/01/30 00:43:30;;;;;;;32.17;2.40;;;6.80;47.30;;;;;;5050809;28;20473;-65
2022/01/30 00:45:57;;;;;;;32.10;2.17;;;6.80;47.20;;;;;;5039528;28;20457;-66
2022/01/30 00:48:23;;;;;;;32.20;2.40;;;6.80;46.90;;;;;;5031220;28;20463;-68
2022/01/30 00:50:50;;;;;;;32.43;2.53;;;6.80;46.90;;;;;;5030082;28;20459;-65
2022/01/30 00:53:17;;;;;;;32.40;2.70;;;6.90;46.80;;;;;;5030864;28;20466;-65
2022/01/30 00:55:45;;;;;;;31.97;2.60;;;6.90;46.80;;;;;;5035934;28;20885;-65
2022/01/30 00:58:12;;;;;;;32.07;2.37;;;6.90;46.60;;;;;;5050447;28;20457;-66
2022/01/30 01:00:40;;;;;;;32.23;3.40;;;6.90;46.40;;;;;;5049037;28;20465;-66
2022/01/30 01:03:07;;;;;;;32.50;2.37;;;6.90;46.10;;;;;;5050154;28;20454;-68
2022/01/30 01:05:35;;;;;;;32.23;3.33;;;6.90;46.20;;;;;;5049290;28;20453;-65
2022/01/30 01:08:11;;;;;;;31.50;2.63;;;6.90;46.10;;;;;;5030764;28;20455;-65
2022/01/30 01:10:42;;;;;;;32.57;3.23;;;6.90;45.70;;;;;;5030371;28;20474;-65
2022/01/30 01:24:07;;;;;;;32.50;2.60;;;6.90;45.00;;;;;;5049429;28;20491;-65
2022/01/30 01:26:35;;;;;;;33.23;2.67;;;6.90;45.20;;;;;;5047486;28;20911;-65
2022/01/30 01:29:03;;;;;;;31.83;2.20;;;6.90;45.10;;;;;;5029464;28;20475;-65
2022/01/30 01:31:31;;;;;;;32.33;2.20;;;6.90;44.90;;;;;;5028843;28;20469;-65
2022/01/30 01:34:12;;;;;;;32.37;2.40;;;6.90;44.60;;;;;;5029945;28;20816;-65
2022/01/30 01:36:39;;;;;;;32.27;2.23;;;6.90;44.80;;;;;;5029722;28;20491;-65
2022/01/30 01:39:06;;;;;;;32.30;2.60;;;6.90;44.90;;;;;;5030474;28;20485;-65
2022/01/30 01:41:33;;;;;;;32.00;2.37;;;7.00;44.80;;;;;;5029603;28;20459;-65
2022/01/30 01:44:00;;;;;;;32.40;2.60;;;7.00;44.70;;;;;;5030132;28;20561;-65
2022/01/30 01:46:31;;;;;;;32.20;2.73;;;7.00;44.80;;;;;;5029522;28;20645;-66
2022/01/30 01:48:59;;;;;;;32.33;2.40;;;7.00;44.60;;;;;;5029438;28;21018;-65
2022/01/30 01:51:30;;;;;;;32.10;2.07;;;7.00;44.50;;;;;;5030250;28;20463;-65
2022/01/30 01:53:58;;;;;;;34.20;2.20;;;7.00;44.40;;;;;;5029419;28;20470;-65
2022/01/30 01:56:27;;;;;;;31.90;2.03;;;7.00;44.40;;;;;;5030115;28;20490;-65
2022/01/30 01:58:54;;;;;;;32.00;2.47;;;7.00;44.60;;;;;;5029349;28;20478;-68
2022/01/30 02:01:22;;;;;;;32.03;2.30;;;7.00;44.60;;;;;;5028780;28;20466;-66
2022/01/30 02:03:49;;;;;;;31.90;2.03;;;7.00;44.60;;;;;;5029430;28;20909;-66
2022/01/30 02:06:20;;;;;;;32.27;2.70;;;7.10;44.80;;;;;;5029733;28;20455;-66
2022/01/30 02:08:52;;;;;;;31.67;2.03;;;7.00;44.60;;;;;;5029421;28;20483;-66
2022/01/30 02:11:30;;;;;;;32.40;2.20;;;7.00;44.80;;;;;;5036080;28;20476;-65
2022/01/30 02:14:26;;;;;;;32.40;2.57;;;7.00;45.00;;;;;;5048931;28;20460;-65
2022/01/30 02:25:35;;;;;;;32.37;2.20;;;7.00;45.30;;;;;;5022168;28;20446;-65
2022/01/30 02:28:08;;;;;;;32.17;2.17;;;7.00;45.20;;;;;;5029137;28;20839;-65
2022/01/30 02:30:38;;;;;;;33.30;2.57;;;7.00;45.20;;;;;;5028688;28;20910;-68
2022/01/30 02:33:05;;;;;;;32.30;2.30;;;7.00;45.30;;;;;;5029263;28;20466;-65
2022/01/30 02:35:32;;;;;;;32.00;2.30;;;7.00;45.30;;;;;;5028831;28;20461;-66
2022/01/30 02:38:01;;;;;;;31.90;2.40;;;7.00;45.40;;;;;;5029113;28;20825;-66
2022/01/30 02:40:31;;;;;;;32.90;2.93;;;7.00;45.40;;;;;;5027712;28;20528;-65
2022/01/30 02:42:58;;;;;;;31.80;2.27;;;7.00;45.40;;;;;;5029157;28;20663;-65
2022/01/30 02:45:28;;;;;;;31.97;2.17;;;7.00;45.30;;;;;;5028075;28;20459;-65
2022/01/30 02:48:12;;;;;;;31.90;2.27;;;7.00;45.50;;;;;;5029279;28;20549;-65
2022/01/30 02:50:51;;;;;;;32.10;3.00;;;7.00;45.10;;;;;;5027834;28;20485;-66
2022/01/30 02:53:25;;;;;;;31.97;1.90;;;7.00;45.00;;;;;;5041720;28;20478;-66
2022/01/30 02:55:51;;;;;;;31.83;2.60;;;7.00;44.80;;;;;;5048480;28;20961;-66
2022/01/30 02:58:18;;;;;;;32.07;1.93;;;7.00;44.80;;;;;;5049246;28;20579;-68
2022/01/30 03:00:45;;;;;;;31.90;2.40;;;7.00;45.00;;;;;;5047626;28;20466;-68
2022/01/30 03:03:12;;;;;;;31.83;2.50;;;7.00;44.90;;;;;;5039165;28;20478;-65
2022/01/30 03:05:38;;;;;;;31.90;2.20;;;7.00;45.20;;;;;;5028626;28;20455;-65
2022/01/30 03:08:05;;;;;;;31.37;2.23;;;7.00;45.20;;;;;;5028315;28;20462;-65
2022/01/30 03:10:34;;;;;;;31.97;2.10;;;7.10;45.20;;;;;;5028246;28;20479;-66
2022/01/30 03:13:00;;;;;;;31.80;1.93;;;7.00;45.40;;;;;;5032154;28;20784;-66
2022/01/30 03:15:27;;;;;;;31.47;2.00;;;7.10;45.70;;;;;;5048310;28;20462;-66
2022/01/30 03:17:54;;;;;;;31.70;2.10;;;7.10;45.60;;;;;;5048258;28;20482;-66
2022/01/30 03:20:21;;;;;;;31.87;2.23;;;7.10;45.90;;;;;;5047831;28;20483;-68
2022/01/30 03:22:48;;;;;;;31.97;2.07;;;7.10;46.00;;;;;;5047645;28;20484;-66
2022/01/30 03:25:15;;;;;;;31.90;2.33;;;7.10;46.10;;;;;;5028388;28;21010;-65
2022/01/30 03:27:50;;;;;;;31.60;2.17;;;7.10;46.10;;;;;;5028671;28;20465;-66
2022/01/30 03:30:24;;;;;;;31.30;2.13;;;7.10;45.90;;;;;;5026824;28;20505;-66
2022/01/30 03:32:51;;;;;;;31.67;1.83;;;7.10;46.00;;;;;;5028891;28;20950;-66
2022/01/30 03:35:18;;;;;;;31.70;2.30;;;7.10;45.90;;;;;;5027085;28;20466;-65
2022/01/30 03:37:45;;;;;;;31.33;1.77;;;7.10;46.00;;;;;;5028399;28;20494;-66
2022/01/30 03:40:12;;;;;;;31.77;2.50;;;7.10;46.10;;;;;;5026231;28;20483;-65
2022/01/30 03:42:40;;;;;;;31.63;2.03;;;7.10;46.00;;;;;;5027531;28;20971;-66
2022/01/30 03:45:09;;;;;;;31.97;2.40;;;7.10;45.90;;;;;;5027712;28;20462;-65
2022/01/30 03:47:36;;;;;;;32.67;2.50;;;7.10;46.10;;;;;;5027864;28;20463;-66
2022/01/30 03:50:03;;;;;;;31.50;1.90;;;7.10;46.20;;;;;;5027754;28;20489;-66
2022/01/30 03:52:30;;;;;;;31.83;2.37;;;7.10;46.30;;;;;;5030206;28;20454;-66
2022/01/30 03:54:57;;;;;;;31.70;2.20;;;7.10;46.40;;;;;;5031931;28;20561;-66
2022/01/30 03:57:24;;;;;;;31.40;2.10;;;7.10;46.50;;;;;;5032174;28;20483;-66
2022/01/30 03:59:50;;;;;;;32.37;2.37;;;7.10;46.60;;;;;;5032015;28;20475;-68
2022/01/30 04:02:19;;;;;;;31.93;2.20;;;7.10;46.70;;;;;;5030879;28;20982;-66
2022/01/30 04:04:45;;;;;;;35.93;2.17;;;7.10;46.70;;;;;;5031375;28;20967;-66
2022/01/30 04:07:13;;;;;;;31.97;2.27;;;7.10;46.80;;;;;;5035277;28;20458;-68
2022/01/30 04:09:40;;;;;;;32.20;2.10;;;7.10;46.90;;;;;;5051313;28;20846;-66
2022/01/30 04:12:08;;;;;;;31.47;2.10;;;7.10;46.90;;;;;;5051251;28;20943;-66
2022/01/30 04:14:36;;;;;;;32.43;2.20;;;7.10;47.00;;;;;;5051408;28;20461;-66
2022/01/30 04:17:03;;;;;;;31.77;2.80;;;7.10;47.10;;;;;;5050779;28;20490;-65
2022/01/30 04:19:31;;;;;;;32.90;2.27;;;7.10;47.10;;;;;;5030795;28;20856;-65
2022/01/30 04:21:58;;;;;;;31.70;2.10;;;7.10;47.20;;;;;;5031030;28;20987;-66
2022/01/30 04:24:25;;;;;;;31.40;2.03;;;7.10;47.40;;;;;;5032222;28;20463;-66
2022/01/30 04:26:52;;;;;;;32.87;2.20;;;7.00;47.30;;;;;;5031251;28;20845;-66
2022/01/30 04:29:19;;;;;;;31.43;2.17;;;7.10;47.40;;;;;;5031550;28;21030;-65
2022/01/30 04:31:48;;;;;;;32.30;2.30;;;7.10;47.30;;;;;;5030433;28;20998;-66
2022/01/30 04:34:16;;;;;;;31.73;2.03;;;7.10;47.40;;;;;;5031175;28;20459;-66
2022/01/30 04:36:57;;;;;;;31.83;2.20;;;7.10;47.50;;;;;;5031148;28;20463;-69
2022/01/30 04:39:39;;;;;;;32.73;1.90;;;7.10;47.60;;;;;;5031680;28;20482;-66
2022/01/30 04:42:27;;;;;;;31.57;2.30;;;7.10;47.70;;;;;;5030933;28;20461;-66
2022/01/30 04:53:16;;;;;;;33.43;2.27;;;7.00;48.80;;;;;;5031096;28;21153;-66
2022/01/30 04:58:50;;;;;;;31.87;2.60;;;7.00;49.00;;;;;;5004981;28;20853;-66
2022/01/30 05:01:22;;;;;;;31.60;2.30;;;7.00;49.10;;;;;;5029482;28;20482;-68
2022/01/30 05:03:59;;;;;;;31.63;2.30;;;7.00;49.00;;;;;;5028933;28;20596;-66
2022/01/30 05:06:34;;;;;;;31.67;2.27;;;7.00;48.80;;;;;;5029715;28;20963;-67
2022/01/30 05:09:03;;;;;;;31.73;2.23;;;6.90;49.10;;;;;;5030450;28;21041;-66
2022/01/30 05:11:29;;;;;;;32.23;2.10;;;6.90;49.20;;;;;;5048839;28;20885;-66
2022/01/30 05:13:57;;;;;;;31.53;2.43;;;6.90;49.30;;;;;;5050253;28;20463;-66
2022/01/30 05:16:24;;;;;;;31.67;2.60;;;6.90;49.90;;;;;;5050302;28;20464;-66
2022/01/30 05:18:51;;;;;;;32.13;2.00;;;6.90;49.30;;;;;;5049977;28;20577;-66
2022/01/30 05:21:19;;;;;;;31.77;2.10;;;6.90;49.10;;;;;;5048928;28;20468;-67
2022/01/30 05:23:47;;;;;;;31.47;1.90;;;6.90;49.10;;;;;;5050265;28;20458;-66
2022/01/30 05:26:16;;;;;;;32.07;2.20;;;6.90;49.00;;;;;;5049813;28;20465;-66
2022/01/30 05:28:43;;;;;;;32.17;2.37;;;6.90;49.10;;;;;;5050324;28;20474;-66
2022/01/30 05:31:11;;;;;;;32.03;2.00;;;6.90;49.10;;;;;;5048427;28;20466;-66
2022/01/30 05:33:38;;;;;;;31.80;2.00;;;6.90;49.00;;;;;;5049753;28;20454;-66
2022/01/30 05:36:06;;;;;;;32.23;2.50;;;6.90;49.10;;;;;;5050408;28;20458;-66
2022/01/30 05:38:33;;;;;;;31.50;2.30;;;6.90;49.10;;;;;;5049671;28;20478;-66
2022/01/30 05:41:00;;;;;;;31.30;2.10;;;6.90;49.20;;;;;;5045824;28;20466;-67
2022/01/30 05:43:31;;;;;;;31.50;2.30;;;6.90;49.30;;;;;;5028425;28;20463;-66
2022/01/30 05:46:09;;;;;;;32.50;2.53;;;6.90;49.10;;;;;;5029028;28;20463;-66
2022/01/30 05:48:37;;;;;;;32.63;2.13;;;6.90;49.30;;;;;;5029963;28;20513;-67
2022/01/30 05:51:03;;;;;;;31.80;2.70;;;6.90;49.50;;;;;;5030233;28;20459;-66
2022/01/30 05:53:30;;;;;;;31.53;2.30;;;6.90;49.30;;;;;;5049616;28;20477;-67
2022/01/30 05:55:57;;;;;;;31.40;2.10;;;6.90;49.50;;;;;;5049844;28;20976;-66
2022/01/30 05:58:24;;;;;;;33.20;2.80;;;6.90;49.30;;;;;;5049302;28;20474;-66
2022/01/30 06:00:52;;;;;;;32.27;2.60;;;6.90;49.30;;;;;;5048804;28;21004;-66
2022/01/30 06:03:19;;;;;;;32.13;2.27;;;6.90;49.40;;;;;;5048630;28;20462;-66
2022/01/30 06:05:46;;;;;;;31.30;2.23;;;6.90;49.40;;;;;;5049673;28;20458;-66
2022/01/30 06:08:16;;;;;;;31.37;1.97;;;6.80;49.30;;;;;;5049519;28;20504;-66
2022/01/30 06:10:43;;;;;;;31.77;2.73;;;6.90;49.30;;;;;;5049595;28;20454;-66
2022/01/30 06:13:10;;;;;;;31.47;2.10;;;6.90;49.50;;;;;;5048387;28;20458;-67
2022/01/30 06:15:37;;;;;;;31.50;2.20;;;6.90;49.30;;;;;;5049212;28;20888;-67
2022/01/30 06:18:05;;;;;;;32.00;2.17;;;6.80;49.20;;;;;;5048285;28;20505;-67
2022/01/30 06:20:32;;;;;;;31.70;2.60;;;6.80;49.20;;;;;;5049062;28;20469;-66
2022/01/30 06:22:59;;;;;;;31.97;2.10;;;6.80;49.30;;;;;;5047730;28;20472;-67
2022/01/30 06:25:25;;;;;;;31.50;2.47;;;6.80;49.30;;;;;;5049144;28;20830;-67
2022/01/30 06:27:52;;;;;;;31.20;2.10;;;6.80;49.30;;;;;;5049005;28;20453;-67
2022/01/30 06:30:21;;;;;;;31.67;2.53;;;6.80;49.10;;;;;;5048261;28;20477;-66
2022/01/30 06:32:49;;;;;;;32.07;2.97;;;6.80;48.90;;;;;;5047550;28;20985;-66
2022/01/30 06:35:17;;;;;;;31.30;2.10;;;6.80;49.20;;;;;;5049018;28;20466;-66
2022/01/30 06:37:44;;;;;;;31.57;2.13;;;6.80;49.00;;;;;;5049752;28;20489;-66
2022/01/30 06:40:12;;;;;;;31.87;3.07;;;6.80;48.90;;;;;;5048912;28;20475;-67
2022/01/30 06:42:39;;;;;;;33.73;2.20;;;6.80;48.90;;;;;;5049230;28;20466;-67
2022/01/30 06:45:07;;;;;;;31.57;2.10;;;6.80;48.70;;;;;;5031820;28;20463;-66
2022/01/30 06:47:41;;;;;;;31.70;2.20;;;6.90;48.70;;;;;;5028798;28;20455;-66
2022/01/30 06:50:08;;;;;;;31.60;2.23;;;6.80;48.80;;;;;;5028205;28;20992;-67
2022/01/30 06:52:37;;;;;;;32.50;2.40;;;6.80;48.60;;;;;;5028574;28;20967;-67
2022/01/30 06:55:04;;;;;;;32.90;2.30;;;6.80;48.50;;;;;;5040071;28;20993;-67
2022/01/30 06:57:31;;;;;;;31.50;2.60;;;6.90;48.60;;;;;;5048858;28;20465;-66
2022/01/30 06:59:58;;;;;;;31.30;2.17;;;6.90;48.50;;;;;;5048595;28;20489;-67
2022/01/30 07:02:25;;;;;;;31.93;2.23;;;6.80;48.50;;;;;;5047199;28;20478;-67
2022/01/30 07:04:52;;;;;;;31.67;2.53;;;6.80;48.40;;;;;;5040560;28;20489;-67
2022/01/30 07:07:19;;;;;;;31.70;2.63;;;6.80;48.30;;;;;;5028408;28;20549;-67
2022/01/30 07:09:47;;;;;;;32.00;2.30;;;6.80;48.20;;;;;;5028352;28;20482;-67
2022/01/30 07:12:13;;;;;;;35.47;2.80;;;6.80;48.20;;;;;;5027896;28;20489;-66
2022/01/30 07:14:40;;;;;;;32.90;2.67;;;6.90;48.20;;;;;;5030156;28;21240;-67
2022/01/30 07:17:07;;;;;;;32.10;2.83;;;6.90;48.20;;;;;;5047962;28;20834;-66
2022/01/30 07:19:34;;;;;;;31.73;2.20;;;6.80;48.20;;;;;;5048247;28;20517;-66
2022/01/30 07:22:00;;;;;;;32.17;2.23;;;6.90;48.20;;;;;;5047582;28;20468;-67
2022/01/30 07:24:27;;;;;;;32.03;2.60;;;7.00;47.90;;;;;;5048048;28;20473;-67
2022/01/30 07:26:55;;;;;;;34.73;2.57;;;7.00;47.80;;;;;;5046649;28;20476;-66
2022/01/30 07:29:22;;;;;;;31.50;2.23;;;7.10;47.80;;;;;;5047806;28;20474;-66
2022/01/30 07:31:49;;;;;;;33.77;2.53;;;7.10;47.40;;;;;;5047203;28;20470;-67
2022/01/30 07:34:16;;;;;;;31.47;2.80;;;7.10;47.30;;;;;;5047250;28;20454;-67
2022/01/30 07:37:11;;;;;;;31.73;2.60;;;7.20;47.10;;;;;;5035448;28;20494;-66
2022/01/30 07:39:38;;;;;;;32.40;2.97;;;7.20;47.20;;;;;;5047052;28;20497;-66
2022/01/30 07:42:07;;;;;;;33.27;2.77;;;7.20;46.90;;;;;;5047437;28;20454;-66
2022/01/30 07:44:34;;;;;;;32.27;2.50;;;7.20;46.50;;;;;;5048052;28;20457;-66
2022/01/30 07:47:01;;;;;;;31.90;2.93;;;7.20;46.50;;;;;;5031361;28;20463;-66
2022/01/30 07:49:27;;;;;;;32.70;2.73;;;7.20;46.30;;;;;;5042904;28;20478;-67
2022/01/30 07:51:54;;;;;;;32.20;3.17;;;7.20;46.40;;;;;;5047104;28;20460;-67
2022/01/30 07:54:21;;;;;;;32.17;3.13;;;7.20;46.10;;;;;;5048645;28;21021;-69
2022/01/30 07:56:48;;;;;;;35.13;3.50;;;7.10;46.00;;;;;;5037575;28;20571;-65
2022/01/30 07:59:16;;;;;;;34.00;3.87;;;7.10;45.90;;;;;;5028875;28;20497;-67
2022/01/30 08:01:43;;;;;;;32.83;3.07;;;7.10;45.90;;;;;;5027863;28;20856;-67
2022/01/30 08:04:11;;;;;;;32.87;3.90;;;7.10;45.60;;;;;;5027287;28;21149;-67
2022/01/30 08:06:37;;;;;;;33.90;3.00;;;7.10;45.50;;;;;;5028786;28;20463;-67
2022/01/30 08:09:04;;;;;;;33.77;3.10;;;7.10;45.20;;;;;;5033291;28;20863;-67
2022/01/30 08:11:31;;;;;;;36.10;3.60;;;7.10;44.80;;;;;;5047357;28;21006;-67
2022/01/30 08:13:58;;;;;;;39.83;4.00;;;7.20;44.00;;;;;;5032258;28;20989;-67
2022/01/30 08:16:27;;;;;;;36.37;3.83;;;7.20;43.60;;;;;;5044523;28;20460;-67
2022/01/30 08:18:54;;;;;;;36.00;4.13;;;7.30;43.00;;;;;;5047293;28;20511;-67
2022/01/30 08:21:20;;;;;;;35.27;3.77;;;7.40;42.60;;;;;;5028390;28;20462;-67
2022/01/30 08:23:48;;;;;;;34.60;4.03;;;7.40;42.50;;;;;;5029138;28;20454;-67
2022/01/30 08:26:14;;;;;;;37.63;4.70;;;7.50;42.10;;;;;;5027402;28;21004;-67
2022/01/30 08:28:41;;;;;;;38.00;4.13;;;7.60;40.60;;;;;;5035047;28;20470;-67
2022/01/30 08:31:08;;;;;;;39.50;5.10;;;7.60;40.80;;;;;;5033757;28;20467;-67
2022/01/30 08:33:36;;;;;;;35.43;4.20;;;7.60;40.20;;;;;;5027193;28;20455;-67
2022/01/30 08:36:03;;;;;;;35.43;4.87;;;7.60;39.60;;;;;;5037354;28;20451;-66
2022/01/30 08:38:30;;;;;;;36.60;4.90;;;7.70;39.00;;;;;;5046617;28;20480;-67
2022/01/30 08:40:57;;;;;;;42.97;5.17;;;7.70;38.60;;;;;;5050197;28;20464;-67
2022/01/30 08:43:24;;;;;;;34.57;4.53;;;7.60;38.00;;;;;;5042508;28;20451;-67
2022/01/30 08:45:51;;;;;;;42.40;4.97;;;7.70;38.60;;;;;;5032463;28;20458;-67
2022/01/30 08:48:18;;;;;;;36.87;4.80;;;7.70;38.20;;;;;;5035680;28;20466;-67
2022/01/30 08:50:47;;;;;;;39.73;4.80;;;7.80;38.50;;;;;;5042582;28;20549;-67
2022/01/30 08:53:16;;;;;;;38.83;4.70;;;7.80;39.00;;;;;;5050258;28;20470;-67
2022/01/30 08:55:43;;;;;;;34.03;4.67;;;7.80;39.30;;;;;;5051104;28;20967;-67
2022/01/30 08:58:10;;;;;;;37.00;4.50;;;7.90;39.10;;;;;;5047206;28;20862;-67
2022/01/30 09:00:38;;;;;;;35.00;4.80;;;7.80;39.20;;;;;;5030822;28;20470;-67
2022/01/30 09:03:06;;;;;;;36.40;4.60;;;7.80;39.60;;;;;;5031884;28;20458;-68
2022/01/30 09:05:34;;;;;;;33.10;3.40;;;8.00;40.00;;;;;;5030983;28;20970;-67
2022/01/30 09:08:04;;;;;;;35.03;3.60;;;8.20;39.70;;;;;;5030668;28;20454;-66
2022/01/30 09:10:31;;;;;;;38.10;4.93;;;8.20;38.70;;;;;;5050178;28;20884;-67
2022/01/30 09:12:58;;;;;;;33.70;3.93;;;8.20;39.20;;;;;;5050795;28;20799;-67
2022/01/30 09:15:25;;;;;;;33.20;2.93;;;8.50;40.40;;;;;;5050293;28;20464;-68
2022/01/30 09:17:53;;;;;;;35.00;3.10;;;9.40;38.90;;;;;;5049283;28;20454;-67
2022/01/30 09:20:20;;;;;;;32.67;3.60;;;10.20;35.10;;;;;;5034723;28;20493;-68
2022/01/30 09:22:48;;;;;;;34.43;3.93;;;11.30;33.60;;;;;;5030608;28;20466;-68
2022/01/30 09:25:16;;;;;;;33.57;3.30;;;12.70;28.10;;;;;;5030937;28;20463;-68
2022/01/30 09:27:43;;;;;;;34.60;3.70;;;12.30;25.80;;;;;;5030312;28;20956;-68
2022/01/30 09:30:11;;;;;;;38.10;4.30;;;11.90;26.00;;;;;;5038908;28;20501;-67
2022/01/30 09:32:38;;;;;;;33.40;3.30;;;11.70;26.30;;;;;;5049930;28;20799;-67
2022/01/30 09:35:06;;;;;;;32.97;3.30;;;12.80;25.70;;;;;;5050270;28;20481;-68
2022/01/30 09:37:33;;;;;;;33.13;3.50;;;14.00;20.80;;;;;;5050737;28;20462;-68
2022/01/30 09:40:00;;;;;;;33.50;3.80;;;13.80;20.00;;;;;;5048462;28;20716;-68
2022/01/30 09:42:29;;;;;;;33.77;4.27;;;13.20;21.80;;;;;;5049376;28;20457;-67
2022/01/30 09:45:00;;;;;;;35.00;4.00;;;12.90;23.20;;;;;;5049247;28;20450;-67
2022/01/30 09:47:27;;;;;;;32.83;3.47;;;14.30;20.00;;;;;;5032437;28;20846;-68
2022/01/30 09:49:56;;;;;;;32.77;4.20;;;15.10;17.60;;;;;;5029288;28;20475;-68
2022/01/30 09:52:22;;;;;;;32.40;3.30;;;14.80;17.50;;;;;;5048148;28;21120;-68
2022/01/30 09:54:49;;;;;;;34.50;3.60;;;15.10;16.40;;;;;;5050681;28;20458;-69
2022/01/30 09:57:16;;;;;;;31.77;3.50;;;14.60;15.50;;;;;;5049713;28;20454;-68
2022/01/30 09:59:45;;;;;;;32.40;3.90;;;13.90;15.60;;;;;;5049941;28;20485;-68
2022/01/30 10:02:13;;;;;;;34.53;3.67;;;13.20;16.90;;;;;;5038874;28;20509;-68
2022/01/30 10:04:40;;;;;;;35.00;3.93;;;12.80;18.40;;;;;;5028703;28;20463;-68
2022/01/30 10:07:13;;;;;;;32.90;3.83;;;14.90;17.70;;;;;;5028777;28;20551;-68
2022/01/30 10:09:44;;;;;;;36.50;3.67;;;17.40;12.40;;;;;;5028941;28;20854;-68
2022/01/30 10:12:15;;;;;;;32.77;3.50;;;19.30;10.40;;;;;;5039431;28;20469;-68
2022/01/30 10:14:54;;;;;;;32.20;4.03;;;21.00;7.90;;;;;;5028087;28;21022;-68
2022/01/30 10:17:29;;;;;;;33.40;4.90;;;19.90;6.80;;;;;;5028156;28;20950;-68
2022/01/30 10:20:11;;;;;;;32.73;3.80;;;19.20;7.80;;;;;;5027125;28;20487;-69
2022/01/30 10:22:50;;;;;;;33.13;3.33;;;18.40;8.00;;;;;;5040218;28;20469;-69
2022/01/30 10:25:22;;;;;;;32.40;4.10;;;17.40;9.00;;;;;;5048150;28;20486;-69
2022/01/30 10:28:04;;;;;;;31.47;2.80;;;17.60;10.60;;;;;;5048302;28;20458;-68
2022/01/30 10:30:41;;;;;;;33.57;3.40;;;19.10;8.20;;;;;;5047717;28;20823;-69
2022/01/30 10:33:09;;;;;;;33.00;3.20;;;19.80;6.30;;;;;;5047245;28;20461;-69
2022/01/30 10:35:50;;;;;;;31.07;4.00;;;19.10;6.80;;;;;;5047877;28;20545;-68
2022/01/30 10:38:22;;;;;;;31.70;4.80;;;19.10;6.30;;;;;;5048354;28;20819;-68
2022/01/30 10:40:54;;;;;;;31.97;4.20;;;18.80;6.10;;;;;;5048240;28;20576;-69
2022/01/30 10:43:21;;;;;;;34.90;4.27;;;18.00;6.90;;;;;;5044848;28;20461;-69
2022/01/30 10:45:49;;;;;;;35.83;3.87;;;16.60;7.90;;;;;;5045764;28;20465;-68
2022/01/30 10:48:18;;;;;;;35.73;4.40;;;16.30;9.60;;;;;;5047460;28;20537;-68
2022/01/30 10:50:48;;;;;;;34.40;4.23;;;15.80;10.20;;;;;;5047865;28;20461;-68
2022/01/30 10:53:20;;;;;;;33.97;4.10;;;15.20;10.90;;;;;;5040367;28;20471;-68
2022/01/30 10:55:48;;;;;;;40.00;4.73;;;14.40;12.00;;;;;;5032891;28;20474;-68
2022/01/30 10:58:17;;;;;;;32.50;3.37;;;14.00;12.90;;;;;;5048400;28;20458;-69
2022/01/30 11:00:46;;;;;;;33.77;3.93;;;14.10;14.00;;;;;;5047003;28;20466;-68
2022/01/30 11:03:37;;;;;;;39.60;4.30;;;13.90;14.10;;;;;;5046776;28;20473;-68
2022/01/30 11:06:07;;;;;;;43.90;7.47;;;13.40;15.10;;;;;;5047703;28;20456;-68
2022/01/30 11:08:35;;;;;;;34.60;3.80;;;13.00;15.50;;;;;;5047892;28;20560;-68
2022/01/30 11:11:08;;;;;;;36.80;3.63;;;12.70;15.20;;;;;;5048354;28;20553;-68
2022/01/30 11:13:47;;;;;;;33.57;4.87;;;12.40;16.20;;;;;;5047442;28;21145;-68
2022/01/30 11:19:02;;;;;;;36.30;3.93;;;11.80;17.00;;;;;;5048131;28;20543;-67
2022/01/30 11:21:29;;;;;;;36.60;4.47;;;11.50;18.30;;;;;;5048159;28;20489;-68
2022/01/30 11:23:58;;;;;;;36.93;5.20;;;11.20;18.90;;;;;;5047179;28;20462;-68
2022/01/30 11:26:25;;;;;;;34.07;3.53;;;11.40;20.50;;;;;;5048739;28;20845;-68
2022/01/30 11:28:53;;;;;;;35.97;4.70;;;13.00;18.00;;;;;;5048212;28;20482;-68
2022/01/30 11:31:20;;;;;;;35.40;3.50;;;13.90;17.20;;;;;;5047230;28;20474;-68
2022/01/30 11:33:50;;;;;;;32.80;3.80;;;14.80;14.60;;;;;;5048390;28;20938;-68
2022/01/30 11:36:18;;;;;;;33.30;4.10;;;14.60;13.60;;;;;;5047190;28;20462;-68
2022/01/30 11:38:46;;;;;;;35.50;3.93;;;14.60;13.10;;;;;;5049273;28;20628;-68
2022/01/30 11:41:15;;;;;;;32.70;3.73;;;15.20;12.30;;;;;;5047353;28;20597;-68
2022/01/30 11:44:02;;;;;;;33.67;3.60;;;15.70;11.20;;;;;;5047990;28;20886;-69
2022/01/30 11:46:28;;;;;;;32.17;3.50;;;16.80;9.10;;;;;;5046599;28;20449;-68
2022/01/30 11:49:11;;;;;;;30.70;3.20;;;17.30;7.50;;;;;;5048183;28;20480;-69
2022/01/30 11:51:50;;;;;;;31.43;3.30;;;17.20;7.10;;;;;;5047099;28;20835;-69
2022/01/30 11:54:34;;;;;;;33.50;4.43;;;16.50;7.30;;;;;;5047358;28;20699;-69
2022/01/30 11:57:00;;;;;;;36.03;3.93;;;15.70;8.50;;;;;;5031123;28;20463;-68
2022/01/30 11:59:37;;;;;;;34.80;3.57;;;15.40;10.80;;;;;;5028411;28;20870;-67
2022/01/30 12:02:23;;;;;;;32.93;3.67;;;15.60;9.00;;;;;;5027065;28;20562;-68
2022/01/30 12:04:54;;;;;;;33.93;3.43;;;15.30;8.80;;;;;;5028462;28;20839;-68
2022/01/30 12:07:36;;;;;;;33.47;3.23;;;14.70;8.80;;;;;;5027600;28;20467;-68
2022/01/30 12:10:34;;;;;;;35.00;3.73;;;14.00;10.10;;;;;;5028066;28;20475;-68
2022/01/30 12:13:03;;;;;;;37.37;4.00;;;13.50;10.40;;;;;;5029325;28;20466;-68
2022/01/30 12:15:37;;;;;;;34.83;3.73;;;13.00;10.90;;;;;;5031582;28;20978;-68
2022/01/30 12:18:05;;;;;;;36.07;3.60;;;12.70;12.10;;;;;;5031202;28;20459;-68
2022/01/30 12:20:33;;;;;;;34.43;3.80;;;12.70;12.00;;;;;;5030915;28;20487;-68
2022/01/30 12:23:02;;;;;;;33.30;3.70;;;13.00;12.20;;;;;;5030586;28;20834;-68
2022/01/30 12:25:36;;;;;;;37.90;4.10;;;13.20;11.50;;;;;;5031674;28;20462;-68
2022/01/30 12:28:14;;;;;;;34.30;4.07;;;13.40;11.00;;;;;;5045221;28;20939;-68
2022/01/30 12:30:52;;;;;;;34.43;4.00;;;13.50;10.80;;;;;;5050525;28;20465;-68
2022/01/30 12:33:44;;;;;;;35.03;3.93;;;13.50;10.60;;;;;;5051291;28;20477;-68
2022/01/30 12:36:21;;;;;;;36.07;3.80;;;13.50;10.70;;;;;;5051538;28;20466;-68
2022/01/30 12:38:59;;;;;;;35.13;3.90;;;13.50;10.70;;;;;;5033739;28;20858;-68
2022/01/30 12:41:27;;;;;;;31.40;3.43;;;13.50;11.60;;;;;;5031093;28;20482;-68
2022/01/30 12:43:57;;;;;;;35.10;4.37;;;13.60;11.20;;;;;;5030420;28;20459;-68
2022/01/30 12:46:25;;;;;;;35.30;4.00;;;13.60;10.70;;;;;;5030618;28;20484;-68
2022/01/30 12:49:04;;;;;;;34.30;5.03;;;13.60;11.20;;;;;;5030403;28;20885;-68
2022/01/30 12:51:31;;;;;;;33.50;3.37;;;13.50;10.80;;;;;;5030361;28;20936;-68
2022/01/30 12:53:59;;;;;;;33.67;5.27;;;13.40;10.80;;;;;;5030741;28;20466;-68
2022/01/30 12:56:27;;;;;;;33.07;3.43;;;13.40;10.60;;;;;;5036665;28;20454;-68
2022/01/30 12:58:56;;;;;;;34.30;4.07;;;13.40;10.40;;;;;;5044102;28;21014;-68
2022/01/30 13:01:26;;;;;;;34.90;4.00;;;13.40;10.10;;;;;;5047676;28;20480;-68
2022/01/30 13:04:05;;;;;;;35.20;3.60;;;13.30;9.90;;;;;;5050434;28;20465;-68
2022/01/30 13:06:37;;;;;;;42.17;8.87;;;13.20;10.60;;;;;;5049870;28;20458;-68
2022/01/30 13:09:06;;;;;;;38.43;3.90;;;13.10;10.90;;;;;;5041551;28;20482;-68
2022/01/30 13:11:33;;;;;;;36.90;3.87;;;13.00;11.50;;;;;;5030441;28;20545;-68
2022/01/30 13:14:03;;;;;;;33.60;3.40;;;12.90;11.60;;;;;;5029461;28;20466;-68
2022/01/30 13:16:32;;;;;;;37.03;4.97;;;12.70;11.10;;;;;;5030072;28;20951;-68
2022/01/30 13:19:00;;;;;;;37.13;4.87;;;12.60;10.90;;;;;;5029557;28;20490;-68
2022/01/30 13:21:30;;;;;;;35.30;4.00;;;12.40;11.60;;;;;;5030311;28;20483;-68
2022/01/30 13:24:05;;;;;;;34.20;3.80;;;12.30;12.00;;;;;;5028947;28;20470;-67
2022/01/30 13:26:42;;;;;;;35.80;3.97;;;12.20;11.70;;;;;;5030709;28;20524;-68
2022/01/30 13:29:14;;;;;;;34.43;5.50;;;12.10;12.40;;;;;;5030843;28;21153;-67
2022/01/30 13:31:42;;;;;;;37.40;3.53;;;12.00;12.60;;;;;;5048441;28;20478;-67